Time;durP1;ratioP1;P1;durP2;ratioP2;P2;SDS_P1;SDS_P2;PMS_P1;PMS_P2;Temp;Humidity;BMP_temperature;BMP_pressure;BME280_temperature;BME280_humidity;BME280_pressure;Samples;Min_cycle;Max_cycle;Signal;HPM_P1;HPM_P2
2023/01/23 00:00:36;;;;;;;15.23;4.05;;;3.00;99.90;;;;;;5111163;27;20073;-81
2023/01/23 00:03:02;;;;;;;8.65;3.70;;;3.00;99.90;;;;;;5130141;27;20081;-81
2023/01/23 00:05:28;;;;;;;7.97;3.28;;;3.00;99.90;;;;;;5092946;27;20130;-82
2023/01/23 00:07:53;;;;;;;12.90;4.25;;;3.00;99.90;;;;;;5111782;27;20150;-82
2023/01/23 00:10:19;;;;;;;9.38;3.65;;;3.00;99.90;;;;;;5129081;27;20176;-81
2023/01/23 00:12:47;;;;;;;8.95;3.80;;;3.00;99.90;;;;;;5111098;27;20055;-82
2023/01/23 00:15:14;;;;;;;9.73;4.38;;;3.00;99.90;;;;;;5093751;27;20043;-82
2023/01/23 00:17:40;;;;;;;8.68;2.95;;;3.00;99.90;;;;;;5093636;27;20130;-81
2023/01/23 00:20:11;;;;;;;9.52;3.35;;;3.00;99.90;;;;;;5094546;27;20039;-82
2023/01/23 00:22:36;;;;;;;11.95;3.42;;;3.00;99.90;;;;;;5092978;27;20043;-81
2023/01/23 00:25:04;;;;;;;9.02;3.35;;;3.00;99.90;;;;;;5130324;27;20359;-82
2023/01/23 00:27:29;;;;;;;9.15;4.00;;;3.00;99.90;;;;;;5128386;27;20043;-81
2023/01/23 00:29:55;;;;;;;7.55;3.70;;;3.00;99.90;;;;;;5111501;27;20050;-81
2023/01/23 00:32:21;;;;;;;10.90;3.97;;;3.00;99.90;;;;;;5128783;27;20160;-81
2023/01/23 00:34:47;;;;;;;8.13;3.60;;;3.00;99.90;;;;;;5128152;27;20122;-81
2023/01/23 00:37:12;;;;;;;18.50;3.88;;;3.00;99.90;;;;;;5111520;27;20054;-81
2023/01/23 00:39:39;;;;;;;9.95;3.25;;;3.00;99.90;;;;;;5128055;27;20389;-81
2023/01/23 00:42:05;;;;;;;11.75;3.35;;;3.90;99.90;;;;;;5111399;27;20047;-82
2023/01/23 00:44:31;;;;;;;9.20;3.25;;;3.00;99.90;;;;;;5109555;27;20047;-81
2023/01/23 00:46:57;;;;;;;12.73;4.13;;;3.00;99.90;;;;;;5111357;27;20126;-81
2023/01/23 00:49:23;;;;;;;9.75;4.00;;;3.00;99.90;;;;;;5129058;27;20045;-81
2023/01/23 00:51:49;;;;;;;6.80;3.60;;;3.00;99.90;;;;;;5128320;27;20055;-81
2023/01/23 00:54:16;;;;;;;8.32;3.05;;;3.00;99.90;;;;;;5111197;27;20095;-81
2023/01/23 00:56:42;;;;;;;9.35;3.53;;;3.00;99.90;;;;;;5092399;27;20524;-81
2023/01/23 00:59:08;;;;;;;6.32;3.40;;;3.00;99.90;;;;;;5111350;27;20047;-81
2023/01/23 01:01:34;;;;;;;10.23;3.55;;;3.00;99.90;;;;;;5112513;27;20088;-81
2023/01/23 01:04:00;;;;;;;9.43;3.60;;;3.00;99.90;;;;;;5131836;27;20039;-82
2023/01/23 01:06:26;;;;;;;6.05;3.33;;;3.00;99.90;;;;;;5094328;27;20406;-82
2023/01/23 01:08:51;;;;;;;8.88;4.10;;;3.00;99.90;;;;;;5109916;27;20043;-81
2023/01/23 01:11:17;;;;;;;10.50;3.95;;;3.00;99.90;;;;;;5110461;27;20059;-81
2023/01/23 01:13:44;;;;;;;8.30;3.65;;;3.00;99.90;;;;;;5075028;27;20043;-81
2023/01/23 01:16:13;;;;;;;8.13;3.25;;;3.00;99.90;;;;;;5111049;27;20079;-82
2023/01/23 01:18:39;;;;;;;9.50;3.70;;;3.00;99.90;;;;;;5092138;27;20410;-82
2023/01/23 01:21:11;;;;;;;9.38;3.58;;;3.00;99.90;;;;;;5093564;27;20135;-81
2023/01/23 01:23:37;;;;;;;5.57;2.90;;;3.00;99.90;;;;;;5109232;27;20047;-81
2023/01/23 01:26:04;;;;;;;13.52;3.53;;;3.00;99.90;;;;;;5109082;27;20047;-81
2023/01/23 01:28:32;;;;;;;12.77;3.28;;;3.00;99.90;;;;;;5110116;27;20035;-81
2023/01/23 01:31:06;;;;;;;7.18;3.03;;;3.00;99.90;;;;;;5091871;27;20431;-82
2023/01/23 01:33:33;;;;;;;7.05;3.67;;;3.00;99.90;;;;;;5110622;27;20043;-82
2023/01/23 01:36:00;;;;;;;10.25;2.97;;;3.00;99.90;;;;;;5091886;27;20043;-81
2023/01/23 01:38:26;;;;;;;8.75;3.10;;;3.00;99.90;;;;;;5109871;27;20595;-81
2023/01/23 01:40:52;;;;;;;6.07;3.10;;;3.00;99.90;;;;;;5092231;27;20126;-81
2023/01/23 01:43:20;;;;;;;8.05;2.95;;;3.00;99.90;;;;;;5091804;27;20042;-82
2023/01/23 01:46:05;;;;;;;7.47;3.13;;;3.00;99.90;;;;;;5110130;27;20118;-81
2023/01/23 01:48:49;;;;;;;8.40;3.55;;;3.00;99.90;;;;;;5126878;27;20050;-82
2023/01/23 01:51:23;;;;;;;6.75;3.13;;;3.30;99.90;;;;;;5109606;27;20058;-81
2023/01/23 01:54:22;;;;;;;13.45;3.80;;;3.30;99.90;;;;;;5127914;27;20047;-82
2023/01/23 01:56:54;;;;;;;8.35;3.75;;;3.00;99.90;;;;;;5056939;27;20075;-81
2023/01/23 01:59:23;;;;;;;7.67;3.13;;;3.00;99.90;;;;;;5110069;27;20520;-81
2023/01/23 02:01:52;;;;;;;9.82;3.17;;;3.00;99.90;;;;;;5107956;27;20047;-81
2023/01/23 02:04:18;;;;;;;8.48;3.08;;;3.00;99.90;;;;;;5108852;27;20546;-81
2023/01/23 02:06:44;;;;;;;6.90;3.10;;;2.90;99.90;;;;;;5109541;27;20039;-81
2023/01/23 02:09:24;;;;;;;8.77;3.15;;;2.90;99.90;;;;;;5126675;27;20386;-82
2023/01/23 02:11:50;;;;;;;7.80;3.53;;;3.30;99.90;;;;;;5127409;27;20859;-82
2023/01/23 02:14:16;;;;;;;7.82;4.70;;;2.90;99.90;;;;;;5107413;27;20050;-81
2023/01/23 02:16:50;;;;;;;7.38;2.85;;;2.90;99.90;;;;;;5128053;27;20039;-82
2023/01/23 02:19:58;;;;;;;6.25;3.42;;;2.90;99.90;;;;;;5126642;27;20078;-81
2023/01/23 02:22:44;;;;;;;10.73;3.60;;;2.90;99.90;;;;;;5077836;27;20383;-82
2023/01/23 02:25:50;;;;;;;8.15;3.55;;;2.90;99.90;;;;;;5127689;27;20044;-82
2023/01/23 02:28:16;;;;;;;9.85;3.72;;;2.90;99.90;;;;;;5127166;27;20529;-82
2023/01/23 02:30:45;;;;;;;12.88;3.75;;;2.90;99.90;;;;;;5125644;27;20035;-82
2023/01/23 02:33:21;;;;;;;8.15;2.97;;;2.90;99.90;;;;;;5127642;27;20043;-82
2023/01/23 02:35:47;;;;;;;10.95;4.13;;;2.90;99.90;;;;;;5125658;27;20054;-82
2023/01/23 02:38:13;;;;;;;9.95;4.03;;;2.80;99.90;;;;;;5127476;27;20066;-82
2023/01/23 02:40:41;;;;;;;6.72;3.67;;;2.90;99.90;;;;;;5107600;27;20184;-82
2023/01/23 02:43:12;;;;;;;7.32;2.95;;;2.80;99.90;;;;;;5091054;27;20406;-82
2023/01/23 02:45:38;;;;;;;9.07;4.10;;;2.80;99.90;;;;;;5127298;27;20050;-83
2023/01/23 02:48:06;;;;;;;5.80;3.42;;;2.80;99.90;;;;;;5125570;27;20047;-82
2023/01/23 02:50:33;;;;;;;6.15;3.40;;;2.90;99.90;;;;;;5127461;27;20039;-82
2023/01/23 02:52:59;;;;;;;10.63;3.83;;;2.80;99.90;;;;;;5106949;27;20047;-82
2023/01/23 02:55:28;;;;;;;6.70;3.70;;;2.80;99.90;;;;;;5127384;27;20031;-82
2023/01/23 03:00:14;;;;;;;6.22;3.42;;;2.90;99.90;;;;;;5125692;27;20047;-82
2023/01/23 03:00:42;;;;;;;6.50;3.83;;;2.80;99.90;;;;;;5125410;27;20043;-82
2023/01/23 03:03:08;;;;;;;10.38;3.83;;;2.90;99.90;;;;;;5127627;27;20461;-82
2023/01/23 03:05:34;;;;;;;10.40;3.63;;;2.90;99.90;;;;;;5106368;27;20095;-82
2023/01/23 03:08:00;;;;;;;8.65;3.88;;;2.90;99.90;;;;;;5127642;27;20399;-82
2023/01/23 03:10:27;;;;;;;9.48;4.13;;;2.90;99.90;;;;;;5107135;27;20556;-82
2023/01/23 03:12:53;;;;;;;9.82;3.58;;;2.90;99.90;;;;;;5107733;27;20051;-82
2023/01/23 03:15:19;;;;;;;4.50;3.00;;;2.90;99.90;;;;;;5126263;27;20084;-82
2023/01/23 03:17:45;;;;;;;9.68;3.17;;;2.90;99.90;;;;;;5090419;27;20194;-82
2023/01/23 03:20:11;;;;;;;6.55;3.22;;;2.90;99.90;;;;;;5126670;27;20046;-82
2023/01/23 03:22:37;;;;;;;8.02;3.42;;;2.90;99.90;;;;;;5105556;28;20043;-82
2023/01/23 03:25:02;;;;;;;6.15;2.97;;;2.90;99.90;;;;;;5108444;27;20043;-82
2023/01/23 03:27:28;;;;;;;9.65;3.50;;;2.90;99.90;;;;;;5125508;27;20130;-82
2023/01/23 03:30:15;;;;;;;11.50;3.70;;;2.90;99.90;;;;;;5107975;28;20239;-82
2023/01/23 03:32:43;;;;;;;8.60;3.17;;;3.30;99.90;;;;;;5110137;28;20035;-82
2023/01/23 03:35:15;;;;;;;6.65;3.47;;;2.90;99.90;;;;;;5125103;28;20382;-82
2023/01/23 03:37:42;;;;;;;11.27;4.00;;;2.90;99.90;;;;;;5108586;28;20035;-83
2023/01/23 03:43:04;;;;;;;9.30;3.67;;;2.90;99.90;;;;;;5125503;28;20524;-82
2023/01/23 03:45:30;;;;;;;7.57;3.45;;;2.90;99.90;;;;;;5107342;28;20069;-83
2023/01/23 03:47:56;;;;;;;6.07;4.28;;;2.90;99.90;;;;;;5124938;28;20035;-82
2023/01/23 03:50:22;;;;;;;8.50;3.22;;;2.90;99.90;;;;;;5126628;28;20096;-82
2023/01/23 03:52:48;;;;;;;7.15;3.08;;;2.90;99.90;;;;;;5106378;28;20043;-82
2023/01/23 03:55:13;;;;;;;5.72;3.33;;;3.10;99.90;;;;;;5108355;28;20046;-82
2023/01/23 03:57:39;;;;;;;5.22;2.92;;;2.90;99.90;;;;;;5125017;28;20127;-82
2023/01/23 04:00:06;;;;;;;7.47;3.20;;;2.90;99.90;;;;;;5107294;28;20384;-82
2023/01/23 04:02:32;;;;;;;3.90;2.67;;;2.90;99.90;;;;;;5125621;28;20035;-82
2023/01/23 04:04:57;;;;;;;10.07;3.65;;;3.60;99.90;;;;;;5106162;28;20046;-82
2023/01/23 04:07:23;;;;;;;8.52;3.92;;;2.90;99.90;;;;;;5108211;28;20046;-82
2023/01/23 04:09:49;;;;;;;7.07;2.78;;;2.90;99.90;;;;;;5124745;28;20066;-82
2023/01/23 04:12:15;;;;;;;11.18;3.45;;;2.90;99.90;;;;;;5126337;28;20482;-82
2023/01/23 04:14:41;;;;;;;7.28;2.97;;;2.90;99.90;;;;;;5124816;28;20555;-82
2023/01/23 04:17:07;;;;;;;10.13;3.97;;;2.80;99.90;;;;;;5107916;28;20078;-82
2023/01/23 04:19:34;;;;;;;6.32;3.53;;;2.90;99.90;;;;;;5109040;28;20070;-82
2023/01/23 04:22:00;;;;;;;6.10;3.35;;;2.90;99.90;;;;;;5075214;28;20035;-82
2023/01/23 04:24:26;;;;;;;9.13;3.72;;;2.80;99.90;;;;;;5128664;28;20039;-82
2023/01/23 04:26:52;;;;;;;10.25;4.15;;;2.80;99.90;;;;;;5126400;28;20035;-82
2023/01/23 04:29:18;;;;;;;9.63;3.95;;;2.90;99.90;;;;;;5109736;28;20051;-82
2023/01/23 04:31:44;;;;;;;8.55;4.13;;;2.80;99.90;;;;;;5089473;28;20039;-82
2023/01/23 04:34:12;;;;;;;9.43;3.72;;;3.80;99.90;;;;;;5108463;27;20496;-82
2023/01/23 04:36:38;;;;;;;9.50;3.22;;;2.80;99.90;;;;;;5109739;27;20044;-82
2023/01/23 04:39:04;;;;;;;8.68;3.53;;;2.80;99.90;;;;;;5128768;27;20126;-82
2023/01/23 04:41:31;;;;;;;8.35;3.72;;;2.90;99.90;;;;;;5093873;27;20088;-82
2023/01/23 04:44:18;;;;;;;8.32;3.58;;;2.80;99.90;;;;;;5092292;27;20035;-81
2023/01/23 04:46:42;;;;;;;7.32;3.60;;;2.80;99.90;;;;;;5110855;27;20043;-82
2023/01/23 04:49:08;;;;;;;5.95;3.65;;;2.90;99.90;;;;;;5092861;27;20095;-82
2023/01/23 04:51:35;;;;;;;8.88;3.35;;;2.80;99.90;;;;;;5129081;27;20134;-82
2023/01/23 04:54:01;;;;;;;11.35;4.03;;;2.80;99.90;;;;;;5128388;27;20043;-82
2023/01/23 04:56:27;;;;;;;9.48;4.22;;;2.80;99.90;;;;;;5109896;27;20399;-82
2023/01/23 04:58:52;;;;;;;14.18;4.47;;;2.80;99.90;;;;;;5110497;27;20378;-82
2023/01/23 05:01:22;;;;;;;7.47;4.03;;;3.60;99.90;;;;;;5127057;27;20047;-81
2023/01/23 05:03:49;;;;;;;9.20;4.68;;;2.80;99.90;;;;;;5111134;27;20119;-81
2023/01/23 05:06:14;;;;;;;6.88;3.90;;;2.60;99.90;;;;;;5109246;27;20042;-82
2023/01/23 05:08:40;;;;;;;8.25;4.75;;;2.80;99.90;;;;;;5128623;27;20043;-81
2023/01/23 05:11:06;;;;;;;8.55;5.00;;;2.80;99.90;;;;;;5109649;27;20055;-82
2023/01/23 05:13:32;;;;;;;16.63;5.15;;;2.80;99.90;;;;;;5127052;27;20096;-82
2023/01/23 05:15:57;;;;;;;9.05;4.97;;;2.80;99.90;;;;;;5110308;27;20072;-82
2023/01/23 05:18:23;;;;;;;12.23;5.22;;;2.80;99.90;;;;;;5091452;27;20134;-81
2023/01/23 05:20:49;;;;;;;8.05;4.32;;;2.80;99.90;;;;;;5128884;27;20059;-82
2023/01/23 05:23:15;;;;;;;8.60;4.30;;;2.80;99.90;;;;;;5091838;27;20061;-82
2023/01/23 05:25:40;;;;;;;11.65;5.05;;;2.80;99.90;;;;;;5093201;27;20039;-81
2023/01/23 05:28:06;;;;;;;9.45;4.82;;;2.80;99.90;;;;;;5109342;27;20043;-82
2023/01/23 05:30:32;;;;;;;10.57;4.90;;;2.80;99.90;;;;;;5127546;27;20394;-83
2023/01/23 05:32:57;;;;;;;8.52;4.47;;;2.80;99.90;;;;;;5093083;27;20043;-86
2023/01/23 05:35:23;;;;;;;7.78;4.85;;;3.20;99.90;;;;;;5126779;27;20059;-82
2023/01/23 05:37:50;;;;;;;7.57;4.05;;;2.90;99.90;;;;;;5128466;27;20051;-83
2023/01/23 05:40:17;;;;;;;12.50;4.55;;;2.90;99.90;;;;;;5108306;27;20494;-83
2023/01/23 05:42:42;;;;;;;9.32;4.43;;;2.90;99.90;;;;;;5075893;27;20099;-83
2023/01/23 05:45:08;;;;;;;6.95;4.13;;;2.80;99.90;;;;;;5108427;27;20453;-83
2023/01/23 05:47:34;;;;;;;13.05;5.07;;;2.90;99.90;;;;;;5127112;27;20054;-82
2023/01/23 05:50:00;;;;;;;12.45;4.95;;;2.80;99.90;;;;;;5128338;27;20386;-82
2023/01/23 05:52:26;;;;;;;6.25;4.20;;;3.00;99.90;;;;;;5126791;27;20111;-83
2023/01/23 05:54:52;;;;;;;9.68;4.43;;;3.50;99.90;;;;;;5128482;27;20043;-84
2023/01/23 05:57:18;;;;;;;8.13;4.45;;;2.80;99.90;;;;;;5126330;27;20050;-84
2023/01/23 05:59:44;;;;;;;8.43;4.85;;;2.90;99.90;;;;;;5109384;27;20402;-83
2023/01/23 06:02:10;;;;;;;6.43;4.47;;;2.90;99.90;;;;;;5108132;27;20405;-87
2023/01/23 06:04:35;;;;;;;9.68;4.97;;;2.90;99.90;;;;;;5091899;27;20083;-84
2023/01/23 06:07:01;;;;;;;8.68;4.47;;;3.90;99.90;;;;;;5108803;27;20051;-84
2023/01/23 06:09:27;;;;;;;9.65;4.55;;;2.90;99.90;;;;;;5090800;27;20049;-85
2023/01/23 06:11:55;;;;;;;8.23;4.28;;;2.90;99.90;;;;;;5092251;27;20039;-84
2023/01/23 06:14:21;;;;;;;14.45;5.50;;;4.00;99.90;;;;;;5091110;27;20047;-84
2023/01/23 06:16:47;;;;;;;6.28;4.13;;;2.90;99.90;;;;;;5109271;27;20402;-84
2023/01/23 06:19:12;;;;;;;15.68;5.55;;;2.90;99.90;;;;;;5107951;27;20094;-85
2023/01/23 06:21:38;;;;;;;10.63;4.97;;;2.90;99.90;;;;;;5127651;27;20047;-84
2023/01/23 06:24:04;;;;;;;6.90;4.68;;;2.90;99.90;;;;;;5108811;27;20116;-81
2023/01/23 06:26:30;;;;;;;9.90;4.97;;;2.90;99.90;;;;;;5090537;27;20058;-83
2023/01/23 06:28:55;;;;;;;13.27;5.45;;;2.90;99.90;;;;;;5109099;27;20069;-84
2023/01/23 06:31:21;;;;;;;10.40;4.65;;;2.90;99.90;;;;;;5107115;27;20050;-84
2023/01/23 06:33:50;;;;;;;17.58;6.10;;;3.00;99.90;;;;;;5092379;27;20043;-84
2023/01/23 06:36:16;;;;;;;7.63;4.20;;;2.90;99.90;;;;;;5107711;27;20058;-83
2023/01/23 06:38:42;;;;;;;9.02;5.20;;;2.90;99.90;;;;;;5091224;27;20047;-84
2023/01/23 06:41:09;;;;;;;9.25;5.18;;;2.80;99.90;;;;;;5126789;27;20043;-83
2023/01/23 06:43:35;;;;;;;9.95;5.05;;;3.00;99.90;;;;;;5107284;27;20498;-83
2023/01/23 06:46:00;;;;;;;7.70;4.90;;;3.30;99.90;;;;;;5108770;27;20081;-87
2023/01/23 06:48:26;;;;;;;15.57;9.10;;;2.90;99.90;;;;;;5107012;27;20038;-85
2023/01/23 06:50:52;;;;;;;10.73;5.88;;;3.80;99.90;;;;;;5108903;27;20035;-88
2023/01/23 06:53:18;;;;;;;10.85;6.10;;;2.90;99.90;;;;;;5125785;27;20127;-87
2023/01/23 06:55:44;;;;;;;9.48;5.63;;;4.20;99.90;;;;;;5108334;27;20071;-88
2023/01/23 06:58:10;;;;;;;12.82;5.43;;;2.90;99.90;;;;;;5090517;27;20047;-85
2023/01/23 07:00:35;;;;;;;14.60;5.60;;;2.50;99.90;;;;;;5090273;27;20039;-87
2023/01/23 07:03:04;;;;;;;11.88;5.63;;;3.70;99.90;;;;;;5108892;27;20502;-86
2023/01/23 07:05:30;;;;;;;11.07;5.65;;;2.80;99.90;;;;;;5125483;27;20039;-87
2023/01/23 07:07:56;;;;;;;12.02;6.03;;;2.80;99.90;;;;;;5108792;27;20039;-86
2023/01/23 07:10:22;;;;;;;13.77;6.28;;;3.00;99.90;;;;;;5106824;27;20045;-86
2023/01/23 07:12:49;;;;;;;10.55;5.97;;;2.80;99.90;;;;;;5108069;27;20119;-86
2023/01/23 07:15:15;;;;;;;12.90;6.93;;;2.80;99.90;;;;;;5107105;27;20112;-86
2023/01/23 07:17:41;;;;;;;14.18;6.97;;;2.80;99.90;;;;;;5107484;27;20039;-86
2023/01/23 07:20:07;;;;;;;14.35;6.57;;;2.80;99.90;;;;;;5107898;27;20078;-86
2023/01/23 07:22:33;;;;;;;13.05;7.40;;;2.80;99.90;;;;;;5124746;27;20120;-85
2023/01/23 07:24:59;;;;;;;13.95;6.60;;;3.40;99.90;;;;;;5126401;27;20047;-86
2023/01/23 07:27:25;;;;;;;18.88;7.97;;;2.80;99.90;;;;;;5106925;28;20047;-86
2023/01/23 07:29:50;;;;;;;14.05;6.80;;;2.80;99.90;;;;;;5107946;27;20507;-85
2023/01/23 07:32:16;;;;;;;17.10;7.57;;;2.80;99.90;;;;;;5089537;28;20039;-85
2023/01/23 07:34:42;;;;;;;15.95;9.70;;;3.70;99.90;;;;;;5107247;28;20047;-86
2023/01/23 07:37:08;;;;;;;10.55;6.95;;;2.80;99.90;;;;;;5108221;28;20035;-86
2023/01/23 07:39:33;;;;;;;13.90;7.53;;;3.60;99.90;;;;;;5106575;28;20525;-86
2023/01/23 07:41:59;;;;;;;17.95;7.80;;;3.10;99.90;;;;;;5108832;28;20097;-86
2023/01/23 07:44:25;;;;;;;15.52;6.72;;;2.80;99.90;;;;;;5108499;28;20129;-86
2023/01/23 07:46:51;;;;;;;9.70;6.38;;;2.80;99.90;;;;;;5114045;28;20647;-86
2023/01/23 07:49:17;;;;;;;12.30;6.88;;;2.80;99.90;;;;;;5094887;28;20035;-86
2023/01/23 07:51:43;;;;;;;11.32;7.65;;;2.80;99.90;;;;;;5109786;28;20489;-87
2023/01/23 07:54:09;;;;;;;12.75;6.85;;;3.20;99.90;;;;;;5108083;28;20044;-86
2023/01/23 07:56:35;;;;;;;15.25;6.80;;;3.20;99.90;;;;;;5106757;28;20051;-86
2023/01/23 07:59:01;;;;;;;16.83;9.05;;;2.80;99.90;;;;;;5108657;28;20085;-86
2023/01/23 08:01:27;;;;;;;15.48;7.18;;;2.80;99.90;;;;;;5072235;28;20378;-86
2023/01/23 08:03:55;;;;;;;13.35;6.70;;;3.10;99.90;;;;;;5107616;28;20040;-86
2023/01/23 08:06:21;;;;;;;12.07;7.47;;;2.80;99.90;;;;;;5106430;28;20047;-87
2023/01/23 08:08:48;;;;;;;13.55;6.88;;;3.00;99.90;;;;;;5107140;27;20065;-86
2023/01/23 08:11:14;;;;;;;16.02;6.93;;;2.80;99.90;;;;;;5111063;27;20061;-86
2023/01/23 08:13:40;;;;;;;11.95;6.85;;;2.80;99.90;;;;;;5110012;27;20051;-86
2023/01/23 08:16:06;;;;;;;12.65;6.60;;;2.90;99.90;;;;;;5094089;27;20061;-86
2023/01/23 08:18:32;;;;;;;11.10;6.00;;;2.90;99.90;;;;;;5109960;27;20051;-86
2023/01/23 08:21:01;;;;;;;8.38;5.93;;;2.90;99.90;;;;;;5111862;27;20039;-86
2023/01/23 08:23:32;;;;;;;9.40;6.28;;;2.90;99.90;;;;;;5109564;27;20047;-86
2023/01/23 08:26:01;;;;;;;11.80;6.32;;;2.90;99.90;;;;;;5094040;27;20099;-86
2023/01/23 08:28:26;;;;;;;13.13;5.82;;;2.90;99.90;;;;;;5110691;27;20050;-85
2023/01/23 08:30:53;;;;;;;9.68;6.28;;;2.90;99.90;;;;;;5110070;27;20039;-86
2023/01/23 08:33:20;;;;;;;11.93;6.30;;;3.60;99.90;;;;;;5094344;27;20189;-86
2023/01/23 08:35:54;;;;;;;10.63;6.28;;;3.70;99.90;;;;;;5109580;27;20520;-86
2023/01/23 08:38:21;;;;;;;12.93;5.88;;;3.00;99.90;;;;;;5111622;27;20039;-86
2023/01/23 08:40:48;;;;;;;13.77;5.93;;;3.10;99.90;;;;;;5093186;27;20437;-85
2023/01/23 08:43:16;;;;;;;8.50;5.03;;;3.00;99.90;;;;;;5110347;27;20051;-86
2023/01/23 08:45:49;;;;;;;11.40;5.15;;;4.00;99.90;;;;;;5093973;27;20363;-86
2023/01/23 08:48:15;;;;;;;;;;;3.10;99.90;;;;;;5110306;27;20118;-85
2023/01/23 08:50:40;;;;;;;9.15;4.65;;;3.20;99.90;;;;;;5094225;27;20356;-85
2023/01/23 08:53:06;;;;;;;6.60;4.80;;;3.60;99.90;;;;;;5091990;27;20051;-86
2023/01/23 08:55:34;;;;;;;10.93;6.05;;;3.10;99.90;;;;;;5110671;27;20081;-86
2023/01/23 08:58:01;;;;;;;10.85;4.80;;;3.20;99.90;;;;;;5092998;27;20051;-86
2023/01/23 09:00:27;;;;;;;13.05;4.85;;;3.20;99.90;;;;;;5128555;27;20073;-86
2023/01/23 09:02:53;;;;;;;8.82;4.50;;;3.20;99.90;;;;;;5110186;27;20039;-86
2023/01/23 09:05:19;;;;;;;10.57;4.60;;;3.20;99.90;;;;;;5108865;27;20055;-86
2023/01/23 09:07:45;;;;;;;8.00;4.53;;;3.20;99.90;;;;;;5110539;27;20053;-85
2023/01/23 09:10:11;;;;;;;8.18;4.65;;;3.30;99.90;;;;;;5091999;27;20096;-86
2023/01/23 09:12:38;;;;;;;7.03;3.67;;;3.30;99.90;;;;;;5093447;27;20047;-86
2023/01/23 09:15:04;;;;;;;6.15;4.45;;;3.30;99.90;;;;;;5109794;27;20086;-86
2023/01/23 09:17:30;;;;;;;8.35;4.70;;;3.30;99.90;;;;;;5092960;27;20051;-86
2023/01/23 09:19:59;;;;;;;6.55;4.53;;;4.10;99.90;;;;;;5109599;27;20163;-85
2023/01/23 09:22:25;;;;;;;4.78;3.25;;;3.40;99.90;;;;;;5090807;27;20047;-85
2023/01/23 09:24:50;;;;;;;5.80;3.70;;;3.40;99.90;;;;;;5093504;27;20046;-85
2023/01/23 09:27:17;;;;;;;5.20;2.95;;;3.40;99.90;;;;;;5109093;27;20040;-86
2023/01/23 09:29:43;;;;;;;6.50;3.47;;;3.40;99.90;;;;;;5110587;27;20456;-85
2023/01/23 09:32:09;;;;;;;7.60;3.55;;;3.40;99.90;;;;;;5108885;27;20054;-87
2023/01/23 09:34:34;;;;;;;7.85;3.03;;;3.40;99.90;;;;;;5092847;27;20100;-86
2023/01/23 09:37:00;;;;;;;6.05;3.50;;;4.00;99.90;;;;;;5109692;27;20449;-87
2023/01/23 09:39:26;;;;;;;5.28;3.15;;;3.70;99.90;;;;;;5091694;27;20137;-85
2023/01/23 09:41:52;;;;;;;6.53;3.67;;;3.50;99.90;;;;;;5093156;27;20077;-87
2023/01/23 09:44:38;;;;;;;6.22;3.90;;;3.90;99.90;;;;;;5090923;27;20092;-89
2023/01/23 09:47:28;;;;;;;7.45;3.85;;;3.50;99.90;;;;;;5109591;27;20092;-85
2023/01/23 09:49:59;;;;;;;9.27;4.20;;;3.50;99.90;;;;;;5075112;27;20054;-85
2023/01/23 09:52:35;;;;;;;4.85;3.63;;;3.50;99.90;;;;;;5108436;27;20062;-88
2023/01/23 09:55:19;;;;;;;4.88;3.60;;;3.60;99.90;;;;;;5092822;27;20082;-84
2023/01/23 09:57:53;;;;;;;6.90;3.90;;;4.70;99.90;;;;;;5127071;27;20410;-88
2023/01/23 10:00:23;;;;;;;6.03;3.78;;;3.70;99.90;;;;;;5108535;27;20049;-88
2023/01/23 10:02:50;;;;;;;7.85;4.07;;;3.60;99.90;;;;;;5091749;27;20040;-88
2023/01/23 10:05:17;;;;;;;9.50;4.32;;;4.60;99.90;;;;;;5108243;27;20078;-88
2023/01/23 10:07:55;;;;;;;11.98;8.48;;;3.70;99.90;;;;;;5109865;27;20162;-88
2023/01/23 10:10:46;;;;;;;13.82;9.32;;;3.70;99.90;;;;;;5107895;27;20107;-86
2023/01/23 10:13:18;;;;;;;11.50;8.25;;;3.80;99.90;;;;;;5108227;27;20099;-86
2023/01/23 10:16:17;;;;;;;10.70;7.50;;;3.80;99.90;;;;;;5108776;27;20130;-86
2023/01/23 10:19:04;;;;;;;11.30;6.00;;;3.90;99.90;;;;;;5090254;27;20073;-86
2023/01/23 10:21:39;;;;;;;8.07;5.07;;;3.80;99.90;;;;;;5091645;27;20103;-86
2023/01/23 10:24:20;;;;;;;8.90;5.40;;;3.90;99.90;;;;;;5091385;27;20057;-86
2023/01/23 10:26:46;;;;;;;8.52;5.07;;;3.90;99.90;;;;;;5107219;27;20035;-86
2023/01/23 10:29:14;;;;;;;9.35;5.63;;;3.90;99.90;;;;;;5109679;27;20047;-89
2023/01/23 10:32:00;;;;;;;6.93;4.57;;;3.90;99.90;;;;;;5107677;27;20473;-89
2023/01/23 10:34:43;;;;;;;11.80;5.57;;;4.00;99.90;;;;;;5108216;27;20096;-89
2023/01/23 10:37:30;;;;;;;12.65;7.43;;;4.00;99.90;;;;;;5091934;27;20150;-89
2023/01/23 10:40:14;;;;;;;8.95;5.60;;;4.00;99.90;;;;;;5090041;27;20475;-89
2023/01/23 10:42:44;;;;;;;10.73;6.68;;;4.10;99.90;;;;;;5091912;27;20489;-88
2023/01/23 10:45:17;;;;;;;10.23;5.93;;;4.10;99.90;;;;;;5057168;27;20055;-89
2023/01/23 10:47:47;;;;;;;9.00;5.93;;;4.10;99.90;;;;;;5090837;27;20057;-89
2023/01/23 10:50:14;;;;;;;16.17;6.68;;;4.10;99.90;;;;;;5091649;27;20050;-89
2023/01/23 10:52:45;;;;;;;10.90;6.68;;;4.60;99.90;;;;;;5073356;27;20053;-87
2023/01/23 10:55:26;;;;;;;10.52;6.82;;;4.20;99.90;;;;;;5092188;27;20042;-86
2023/01/23 10:58:02;;;;;;;10.68;6.82;;;5.10;99.90;;;;;;5090685;27;20512;-87
2023/01/23 11:00:38;;;;;;;14.35;7.35;;;4.20;99.90;;;;;;5091324;27;20524;-86
2023/01/23 11:03:27;;;;;;;16.05;7.85;;;4.90;99.90;;;;;;5108033;27;20069;-85
2023/01/23 11:05:59;;;;;;;12.20;6.97;;;4.30;99.90;;;;;;5107195;27;20134;-85
2023/01/23 11:08:26;;;;;;;11.57;6.82;;;4.50;99.90;;;;;;5093301;27;20091;-85
2023/01/23 11:11:15;;;;;;;12.57;6.57;;;4.60;99.90;;;;;;5098643;27;20047;-86
2023/01/23 11:14:01;;;;;;;9.15;6.32;;;4.30;99.90;;;;;;5081671;27;20054;-87
2023/01/23 11:16:27;;;;;;;13.10;7.07;;;4.30;99.90;;;;;;5109632;27;20053;-88
2023/01/23 11:19:02;;;;;;;10.48;7.20;;;4.40;99.90;;;;;;5107188;27;20047;-89
2023/01/23 11:21:32;;;;;;;11.88;6.90;;;4.40;99.90;;;;;;5091139;27;20043;-87
2023/01/23 11:24:09;;;;;;;11.65;6.88;;;4.60;99.90;;;;;;5089645;27;20425;-88
2023/01/23 11:26:36;;;;;;;12.63;6.43;;;4.50;99.90;;;;;;5107187;27;20039;-88
2023/01/23 11:29:17;;;;;;;13.48;7.40;;;4.60;99.90;;;;;;5108179;27;20082;-88
2023/01/23 11:31:43;;;;;;;8.93;6.85;;;4.50;99.90;;;;;;5089168;28;20130;-88
2023/01/23 11:34:12;;;;;;;10.95;7.40;;;4.80;99.90;;;;;;5091102;27;20616;-88
2023/01/23 11:37:09;;;;;;;12.02;7.63;;;4.50;99.90;;;;;;5106995;28;20138;-87
2023/01/23 11:39:59;;;;;;;11.25;7.63;;;4.60;99.90;;;;;;5106269;28;20054;-88
2023/01/23 11:42:27;;;;;;;11.82;6.32;;;4.60;99.90;;;;;;5108559;28;20086;-88
2023/01/23 11:44:53;;;;;;;11.73;6.78;;;5.40;99.90;;;;;;5108267;27;20099;-87
2023/01/23 11:47:43;;;;;;;12.00;6.65;;;4.70;99.90;;;;;;5111513;27;20050;-88
2023/01/23 11:50:46;;;;;;;11.07;6.38;;;4.70;99.90;;;;;;5095027;27;20043;-88
2023/01/23 11:53:35;;;;;;;10.05;7.10;;;5.90;99.90;;;;;;5057959;27;20055;-88
2023/01/23 11:56:37;;;;;;;10.40;7.05;;;5.70;99.90;;;;;;5059853;27;20054;-86
2023/01/23 11:59:28;;;;;;;10.45;7.03;;;4.80;99.90;;;;;;5111863;27;20569;-85
2023/01/23 12:02:18;;;;;;;9.25;6.25;;;4.80;99.90;;;;;;5110789;27;20406;-84
2023/01/23 12:05:18;;;;;;;15.45;8.50;;;4.90;99.90;;;;;;5093958;27;20051;-84
2023/01/23 12:08:04;;;;;;;12.55;7.47;;;4.90;99.90;;;;;;5112484;27;20458;-84
2023/01/23 12:10:48;;;;;;;10.20;6.60;;;4.90;99.90;;;;;;5110226;27;20529;-84
2023/01/23 12:13:42;;;;;;;8.57;6.70;;;5.00;99.90;;;;;;5107578;28;20040;-84
2023/01/23 12:16:32;;;;;;;10.38;6.47;;;5.00;99.90;;;;;;5091318;28;20550;-84
2023/01/23 12:19:16;;;;;;;8.93;5.75;;;5.00;99.90;;;;;;5106939;28;20058;-84
2023/01/23 12:21:45;;;;;;;8.43;5.93;;;5.10;99.90;;;;;;5107713;28;20083;-84
2023/01/23 12:24:37;;;;;;;9.02;5.60;;;5.20;99.90;;;;;;5090302;28;20148;-84
2023/01/23 12:27:21;;;;;;;9.88;6.28;;;5.10;99.90;;;;;;5089190;28;20134;-84
2023/01/23 12:29:50;;;;;;;13.15;6.40;;;5.10;99.90;;;;;;5108117;28;20040;-85
2023/01/23 12:32:45;;;;;;;11.48;6.38;;;4.60;99.90;;;;;;5106023;28;20048;-86
2023/01/23 12:35:13;;;;;;;7.57;5.70;;;5.10;99.90;;;;;;5086202;28;20087;-85
2023/01/23 12:38:10;;;;;;;8.05;5.55;;;5.10;99.90;;;;;;5107702;28;20043;-83
2023/01/23 12:40:57;;;;;;;7.70;6.22;;;5.10;99.90;;;;;;5107098;28;20515;-85
2023/01/23 12:43:42;;;;;;;7.07;5.13;;;5.00;99.90;;;;;;5089534;28;20036;-83
2023/01/23 12:46:15;;;;;;;9.43;5.32;;;4.90;99.90;;;;;;5107925;28;20046;-84
2023/01/23 12:49:26;;;;;;;15.10;6.53;;;4.90;99.90;;;;;;5088660;28;20043;-85
2023/01/23 12:52:33;;;;;;;8.18;5.25;;;4.90;99.90;;;;;;5052633;28;20466;-85
2023/01/23 12:55:22;;;;;;;9.35;5.47;;;4.90;99.90;;;;;;5078687;28;20052;-88
2023/01/23 12:57:53;;;;;;;10.25;6.07;;;4.80;99.90;;;;;;5107254;28;20048;-88
2023/01/23 13:00:47;;;;;;;9.85;5.68;;;4.80;99.90;;;;;;5106819;28;20123;-87
2023/01/23 13:03:27;;;;;;;9.23;5.65;;;4.80;99.90;;;;;;5107451;28;20052;-87
2023/01/23 13:05:56;;;;;;;9.38;6.85;;;4.70;99.90;;;;;;5105691;28;20195;-86
2023/01/23 13:08:40;;;;;;;9.85;7.20;;;4.70;99.90;;;;;;5107359;28;20431;-85
2023/01/23 13:11:39;;;;;;;8.73;5.53;;;4.70;99.90;;;;;;5089135;28;20096;-87
2023/01/23 13:14:42;;;;;;;9.45;5.50;;;4.70;99.90;;;;;;5088238;28;20071;-87